sensor_id;sensor_type;location;lat;lon;timestamp;P1;durP1;ratioP1;P2;durP2;ratioP2
31378;SDS011;61664;48.112;11.662;2023-08-17T00:02:13;2.70;;;2.50;;
31378;SDS011;61664;48.112;11.662;2023-08-17T00:04:40;4.10;;;2.63;;
31378;SDS011;61664;48.112;11.662;2023-08-17T00:07:07;2.97;;;2.78;;
31378;SDS011;61664;48.112;11.662;2023-08-17T00:09:34;2.42;;;2.22;;
31378;SDS011;61664;48.112;11.662;2023-08-17T00:12:01;2.17;;;2.08;;
31378;SDS011;61664;48.112;11.662;2023-08-17T00:14:29;2.88;;;2.55;;
31378;SDS011;61664;48.112;11.662;2023-08-17T00:16:56;2.80;;;2.60;;
31378;SDS011;61664;48.112;11.662;2023-08-17T00:19:23;2.60;;;2.45;;
31378;SDS011;61664;48.112;11.662;2023-08-17T00:21:50;4.03;;;3.08;;
31378;SDS011;61664;48.112;11.662;2023-08-17T00:24:18;3.67;;;2.58;;
31378;SDS011;61664;48.112;11.662;2023-08-17T00:26:45;4.00;;;2.72;;
31378;SDS011;61664;48.112;11.662;2023-08-17T00:29:12;3.03;;;2.83;;
31378;SDS011;61664;48.112;11.662;2023-08-17T00:31:41;2.92;;;2.72;;
31378;SDS011;61664;48.112;11.662;2023-08-17T00:34:08;3.22;;;3.03;;
31378;SDS011;61664;48.112;11.662;2023-08-17T00:36:35;4.05;;;2.92;;
31378;SDS011;61664;48.112;11.662;2023-08-17T00:39:02;3.15;;;2.80;;
31378;SDS011;61664;48.112;11.662;2023-08-17T00:41:29;3.53;;;3.30;;
31378;SDS011;61664;48.112;11.662;2023-08-17T00:43:56;3.00;;;2.80;;
31378;SDS011;61664;48.112;11.662;2023-08-17T00:46:23;3.53;;;3.22;;
31378;SDS011;61664;48.112;11.662;2023-08-17T00:48:51;3.67;;;3.38;;
31378;SDS011;61664;48.112;11.662;2023-08-17T00:51:19;2.90;;;2.70;;
31378;SDS011;61664;48.112;11.662;2023-08-17T00:53:46;4.65;;;2.83;;
31378;SDS011;61664;48.112;11.662;2023-08-17T00:56:14;2.40;;;2.30;;
31378;SDS011;61664;48.112;11.662;2023-08-17T00:58:41;2.75;;;2.55;;
31378;SDS011;61664;48.112;11.662;2023-08-17T01:01:09;3.00;;;2.35;;
31378;SDS011;61664;48.112;11.662;2023-08-17T01:03:36;2.65;;;2.45;;
31378;SDS011;61664;48.112;11.662;2023-08-17T01:06:07;2.97;;;2.65;;
31378;SDS011;61664;48.112;11.662;2023-08-17T01:08:35;2.63;;;2.53;;
31378;SDS011;61664;48.112;11.662;2023-08-17T01:14:31;2.78;;;2.58;;
31378;SDS011;61664;48.112;11.662;2023-08-17T01:17:17;2.78;;;2.58;;
31378;SDS011;61664;48.112;11.662;2023-08-17T01:19:51;3.05;;;2.85;;
31378;SDS011;61664;48.112;11.662;2023-08-17T01:22:20;2.95;;;2.75;;
31378;SDS011;61664;48.112;11.662;2023-08-17T01:24:49;3.35;;;3.15;;
31378;SDS011;61664;48.112;11.662;2023-08-17T01:27:16;2.60;;;2.50;;
31378;SDS011;61664;48.112;11.662;2023-08-17T01:29:43;3.78;;;2.70;;
31378;SDS011;61664;48.112;11.662;2023-08-17T01:32:13;2.90;;;2.70;;
31378;SDS011;61664;48.112;11.662;2023-08-17T01:34:55;2.45;;;2.30;;
31378;SDS011;61664;48.112;11.662;2023-08-17T01:38:11;3.13;;;2.75;;
31378;SDS011;61664;48.112;11.662;2023-08-17T01:40:45;3.38;;;3.17;;
31378;SDS011;61664;48.112;11.662;2023-08-17T01:43:14;2.47;;;2.33;;
31378;SDS011;61664;48.112;11.662;2023-08-17T01:45:43;3.08;;;2.88;;
31378;SDS011;61664;48.112;11.662;2023-08-17T01:48:10;3.08;;;2.80;;
31378;SDS011;61664;48.112;11.662;2023-08-17T01:50:37;4.20;;;2.75;;
31378;SDS011;61664;48.112;11.662;2023-08-17T01:53:04;3.55;;;3.10;;
31378;SDS011;61664;48.112;11.662;2023-08-17T01:55:31;2.95;;;2.70;;
31378;SDS011;61664;48.112;11.662;2023-08-17T01:57:58;3.00;;;2.60;;
31378;SDS011;61664;48.112;11.662;2023-08-17T02:00:25;3.22;;;3.03;;
31378;SDS011;61664;48.112;11.662;2023-08-17T02:02:52;2.83;;;2.63;;
31378;SDS011;61664;48.112;11.662;2023-08-17T02:05:20;3.10;;;2.90;;
31378;SDS011;61664;48.112;11.662;2023-08-17T02:07:47;3.15;;;2.95;;
31378;SDS011;61664;48.112;11.662;2023-08-17T02:10:14;2.78;;;2.58;;
31378;SDS011;61664;48.112;11.662;2023-08-17T02:12:41;2.63;;;2.50;;
31378;SDS011;61664;48.112;11.662;2023-08-17T02:15:08;3.25;;;3.05;;
31378;SDS011;61664;48.112;11.662;2023-08-17T02:17:35;2.90;;;2.70;;
31378;SDS011;61664;48.112;11.662;2023-08-17T02:20:02;3.10;;;2.90;;
31378;SDS011;61664;48.112;11.662;2023-08-17T02:22:30;2.92;;;2.72;;
31378;SDS011;61664;48.112;11.662;2023-08-17T02:25:00;2.97;;;2.70;;
31378;SDS011;61664;48.112;11.662;2023-08-17T02:27:27;2.47;;;2.28;;
31378;SDS011;61664;48.112;11.662;2023-08-17T02:29:57;3.05;;;2.80;;
31378;SDS011;61664;48.112;11.662;2023-08-17T02:32:24;3.00;;;2.80;;
31378;SDS011;61664;48.112;11.662;2023-08-17T02:34:51;2.85;;;2.65;;
31378;SDS011;61664;48.112;11.662;2023-08-17T02:37:18;3.05;;;2.90;;
31378;SDS011;61664;48.112;11.662;2023-08-17T02:39:45;3.00;;;2.80;;
31378;SDS011;61664;48.112;11.662;2023-08-17T02:42:12;2.88;;;2.67;;
31378;SDS011;61664;48.112;11.662;2023-08-17T02:44:39;2.70;;;2.53;;
31378;SDS011;61664;48.112;11.662;2023-08-17T02:47:06;2.83;;;2.63;;
31378;SDS011;61664;48.112;11.662;2023-08-17T02:49:32;2.85;;;2.65;;
31378;SDS011;61664;48.112;11.662;2023-08-17T02:51:59;2.55;;;2.40;;
31378;SDS011;61664;48.112;11.662;2023-08-17T02:54:26;3.13;;;2.80;;
31378;SDS011;61664;48.112;11.662;2023-08-17T02:56:53;3.53;;;2.70;;
31378;SDS011;61664;48.112;11.662;2023-08-17T02:59:20;3.15;;;2.95;;
31378;SDS011;61664;48.112;11.662;2023-08-17T03:01:47;2.67;;;2.50;;
31378;SDS011;61664;48.112;11.662;2023-08-17T03:04:14;3.13;;;2.83;;
31378;SDS011;61664;48.112;11.662;2023-08-17T03:06:41;2.92;;;2.72;;
31378;SDS011;61664;48.112;11.662;2023-08-17T03:09:08;2.83;;;2.63;;
31378;SDS011;61664;48.112;11.662;2023-08-17T03:11:36;3.47;;;2.67;;
31378;SDS011;61664;48.112;11.662;2023-08-17T03:14:03;3.20;;;3.00;;
31378;SDS011;61664;48.112;11.662;2023-08-17T03:16:30;2.45;;;2.35;;
31378;SDS011;61664;48.112;11.662;2023-08-17T03:18:57;2.85;;;2.65;;
31378;SDS011;61664;48.112;11.662;2023-08-17T03:21:25;2.97;;;2.78;;
31378;SDS011;61664;48.112;11.662;2023-08-17T03:23:52;3.90;;;2.83;;
31378;SDS011;61664;48.112;11.662;2023-08-17T03:26:19;2.83;;;2.72;;
31378;SDS011;61664;48.112;11.662;2023-08-17T03:28:46;2.70;;;2.60;;
31378;SDS011;61664;48.112;11.662;2023-08-17T03:31:13;3.25;;;3.08;;
31378;SDS011;61664;48.112;11.662;2023-08-17T03:33:40;3.08;;;2.88;;
31378;SDS011;61664;48.112;11.662;2023-08-17T03:36:07;3.30;;;3.10;;
31378;SDS011;61664;48.112;11.662;2023-08-17T03:38:33;3.83;;;2.92;;
31378;SDS011;61664;48.112;11.662;2023-08-17T03:41:00;2.72;;;2.63;;
31378;SDS011;61664;48.112;11.662;2023-08-17T03:43:27;2.90;;;2.70;;
31378;SDS011;61664;48.112;11.662;2023-08-17T03:45:54;3.30;;;3.10;;
31378;SDS011;61664;48.112;11.662;2023-08-17T03:48:21;2.72;;;2.63;;
31378;SDS011;61664;48.112;11.662;2023-08-17T03:50:52;3.17;;;2.97;;
31378;SDS011;61664;48.112;11.662;2023-08-17T03:53:20;3.03;;;2.88;;
31378;SDS011;61664;48.112;11.662;2023-08-17T03:55:50;3.30;;;3.10;;
31378;SDS011;61664;48.112;11.662;2023-08-17T03:58:17;3.25;;;2.97;;
31378;SDS011;61664;48.112;11.662;2023-08-17T04:00:51;4.80;;;3.33;;
31378;SDS011;61664;48.112;11.662;2023-08-17T04:03:19;3.47;;;3.28;;
31378;SDS011;61664;48.112;11.662;2023-08-17T04:05:46;2.95;;;2.75;;
31378;SDS011;61664;48.112;11.662;2023-08-17T04:08:13;3.30;;;3.10;;
31378;SDS011;61664;48.112;11.662;2023-08-17T04:10:40;3.22;;;3.03;;
31378;SDS011;61664;48.112;11.662;2023-08-17T04:13:07;2.72;;;2.53;;
31378;SDS011;61664;48.112;11.662;2023-08-17T04:15:34;3.88;;;2.92;;
31378;SDS011;61664;48.112;11.662;2023-08-17T04:18:00;3.10;;;2.90;;
31378;SDS011;61664;48.112;11.662;2023-08-17T04:20:27;2.97;;;2.85;;
31378;SDS011;61664;48.112;11.662;2023-08-17T04:22:54;3.85;;;3.55;;
31378;SDS011;61664;48.112;11.662;2023-08-17T04:25:21;3.03;;;2.83;;
31378;SDS011;61664;48.112;11.662;2023-08-17T04:27:48;2.85;;;2.72;;
31378;SDS011;61664;48.112;11.662;2023-08-17T04:30:15;4.82;;;2.95;;
31378;SDS011;61664;48.112;11.662;2023-08-17T04:32:42;3.45;;;3.25;;
31378;SDS011;61664;48.112;11.662;2023-08-17T04:35:09;2.88;;;2.67;;
31378;SDS011;61664;48.112;11.662;2023-08-17T04:37:37;3.25;;;3.05;;
31378;SDS011;61664;48.112;11.662;2023-08-17T04:40:04;3.30;;;3.10;;
31378;SDS011;61664;48.112;11.662;2023-08-17T04:42:32;3.88;;;3.25;;
31378;SDS011;61664;48.112;11.662;2023-08-17T04:44:59;2.88;;;2.67;;
31378;SDS011;61664;48.112;11.662;2023-08-17T04:47:25;3.47;;;3.28;;
31378;SDS011;61664;48.112;11.662;2023-08-17T04:49:53;3.67;;;3.47;;
31378;SDS011;61664;48.112;11.662;2023-08-17T04:52:20;3.08;;;2.88;;
31378;SDS011;61664;48.112;11.662;2023-08-17T04:54:47;3.28;;;3.03;;
31378;SDS011;61664;48.112;11.662;2023-08-17T04:57:14;3.17;;;2.97;;
31378;SDS011;61664;48.112;11.662;2023-08-17T04:59:41;4.25;;;3.72;;
31378;SDS011;61664;48.112;11.662;2023-08-17T05:02:08;3.60;;;3.40;;
31378;SDS011;61664;48.112;11.662;2023-08-17T05:04:35;3.53;;;3.33;;
31378;SDS011;61664;48.112;11.662;2023-08-17T05:07:02;3.83;;;3.53;;
31378;SDS011;61664;48.112;11.662;2023-08-17T05:09:29;3.22;;;3.03;;
31378;SDS011;61664;48.112;11.662;2023-08-17T05:11:56;5.32;;;3.40;;
31378;SDS011;61664;48.112;11.662;2023-08-17T05:14:23;3.83;;;3.63;;
31378;SDS011;61664;48.112;11.662;2023-08-17T05:16:50;3.70;;;3.35;;
31378;SDS011;61664;48.112;11.662;2023-08-17T05:19:17;3.85;;;3.65;;
31378;SDS011;61664;48.112;11.662;2023-08-17T05:21:44;3.60;;;3.33;;
31378;SDS011;61664;48.112;11.662;2023-08-17T05:24:11;3.88;;;3.67;;
31378;SDS011;61664;48.112;11.662;2023-08-17T05:26:38;3.70;;;3.50;;
31378;SDS011;61664;48.112;11.662;2023-08-17T05:29:05;4.57;;;4.20;;
31378;SDS011;61664;48.112;11.662;2023-08-17T05:31:32;4.15;;;3.83;;
31378;SDS011;61664;48.112;11.662;2023-08-17T05:33:59;3.42;;;3.22;;
31378;SDS011;61664;48.112;11.662;2023-08-17T05:36:25;3.55;;;3.25;;
31378;SDS011;61664;48.112;11.662;2023-08-17T05:38:52;3.97;;;3.78;;
31378;SDS011;61664;48.112;11.662;2023-08-17T05:41:19;3.63;;;3.42;;
31378;SDS011;61664;48.112;11.662;2023-08-17T05:43:47;5.80;;;4.05;;
31378;SDS011;61664;48.112;11.662;2023-08-17T05:46:15;4.15;;;3.95;;
31378;SDS011;61664;48.112;11.662;2023-08-17T05:48:42;3.95;;;3.47;;
31378;SDS011;61664;48.112;11.662;2023-08-17T05:51:08;3.83;;;3.63;;
31378;SDS011;61664;48.112;11.662;2023-08-17T05:53:35;4.18;;;3.97;;
31378;SDS011;61664;48.112;11.662;2023-08-17T05:56:02;3.97;;;3.65;;
31378;SDS011;61664;48.112;11.662;2023-08-17T05:58:29;4.00;;;3.70;;
31378;SDS011;61664;48.112;11.662;2023-08-17T06:01:03;4.00;;;3.70;;
31378;SDS011;61664;48.112;11.662;2023-08-17T06:03:35;3.42;;;3.22;;
31378;SDS011;61664;48.112;11.662;2023-08-17T06:06:06;3.45;;;3.25;;
31378;SDS011;61664;48.112;11.662;2023-08-17T06:08:33;3.70;;;3.40;;
31378;SDS011;61664;48.112;11.662;2023-08-17T06:11:00;3.75;;;3.50;;
31378;SDS011;61664;48.112;11.662;2023-08-17T06:13:27;3.65;;;3.40;;
31378;SDS011;61664;48.112;11.662;2023-08-17T06:15:55;3.55;;;3.35;;
31378;SDS011;61664;48.112;11.662;2023-08-17T06:18:24;3.57;;;3.37;;
31378;SDS011;61664;48.112;11.662;2023-08-17T06:20:51;3.33;;;3.10;;
31378;SDS011;61664;48.112;11.662;2023-08-17T06:23:20;3.78;;;3.58;;
31378;SDS011;61664;48.112;11.662;2023-08-17T06:25:48;3.40;;;3.20;;
31378;SDS011;61664;48.112;11.662;2023-08-17T06:28:14;3.90;;;3.60;;
31378;SDS011;61664;48.112;11.662;2023-08-17T06:30:41;3.63;;;3.42;;
31378;SDS011;61664;48.112;11.662;2023-08-17T06:33:08;4.07;;;3.85;;
31378;SDS011;61664;48.112;11.662;2023-08-17T06:35:35;3.40;;;3.10;;
31378;SDS011;61664;48.112;11.662;2023-08-17T06:38:02;4.70;;;3.70;;
31378;SDS011;61664;48.112;11.662;2023-08-17T06:40:29;3.47;;;3.28;;
31378;SDS011;61664;48.112;11.662;2023-08-17T06:42:56;3.50;;;3.30;;
31378;SDS011;61664;48.112;11.662;2023-08-17T06:45:23;3.75;;;3.45;;
31378;SDS011;61664;48.112;11.662;2023-08-17T06:47:50;4.03;;;3.05;;
31378;SDS011;61664;48.112;11.662;2023-08-17T06:50:17;3.03;;;2.83;;
31378;SDS011;61664;48.112;11.662;2023-08-17T06:52:44;2.97;;;2.85;;
31378;SDS011;61664;48.112;11.662;2023-08-17T06:55:11;3.47;;;3.17;;
31378;SDS011;61664;48.112;11.662;2023-08-17T06:57:38;3.30;;;3.10;;
31378;SDS011;61664;48.112;11.662;2023-08-17T07:00:05;2.90;;;2.70;;
31378;SDS011;61664;48.112;11.662;2023-08-17T07:02:33;3.15;;;3.03;;
31378;SDS011;61664;48.112;11.662;2023-08-17T07:05:17;3.75;;;3.55;;
31378;SDS011;61664;48.112;11.662;2023-08-17T07:07:44;3.28;;;3.00;;
31378;SDS011;61664;48.112;11.662;2023-08-17T07:10:11;3.20;;;3.00;;
31378;SDS011;61664;48.112;11.662;2023-08-17T07:12:38;3.20;;;3.00;;
31378;SDS011;61664;48.112;11.662;2023-08-17T07:15:06;3.42;;;3.22;;
31378;SDS011;61664;48.112;11.662;2023-08-17T07:17:34;5.35;;;2.88;;
31378;SDS011;61664;48.112;11.662;2023-08-17T07:20:03;2.90;;;2.70;;
31378;SDS011;61664;48.112;11.662;2023-08-17T07:22:42;3.65;;;3.35;;
31378;SDS011;61664;48.112;11.662;2023-08-17T07:25:09;3.20;;;3.00;;
31378;SDS011;61664;48.112;11.662;2023-08-17T07:27:36;3.00;;;2.80;;
31378;SDS011;61664;48.112;11.662;2023-08-17T07:30:04;2.67;;;2.58;;
31378;SDS011;61664;48.112;11.662;2023-08-17T07:32:32;3.33;;;3.10;;
31378;SDS011;61664;48.112;11.662;2023-08-17T07:35:00;2.85;;;2.65;;
31378;SDS011;61664;48.112;11.662;2023-08-17T07:37:27;3.40;;;3.15;;
31378;SDS011;61664;48.112;11.662;2023-08-17T07:39:59;2.95;;;2.63;;
31378;SDS011;61664;48.112;11.662;2023-08-17T07:42:26;2.85;;;2.75;;
31378;SDS011;61664;48.112;11.662;2023-08-17T07:44:53;3.28;;;3.08;;
31378;SDS011;61664;48.112;11.662;2023-08-17T07:47:20;2.90;;;2.70;;
31378;SDS011;61664;48.112;11.662;2023-08-17T07:49:47;3.13;;;2.92;;
31378;SDS011;61664;48.112;11.662;2023-08-17T07:52:15;2.85;;;2.75;;
31378;SDS011;61664;48.112;11.662;2023-08-17T07:54:42;3.33;;;3.05;;
31378;SDS011;61664;48.112;11.662;2023-08-17T07:57:10;3.30;;;3.10;;
31378;SDS011;61664;48.112;11.662;2023-08-17T07:59:37;3.15;;;2.95;;
31378;SDS011;61664;48.112;11.662;2023-08-17T08:02:04;2.50;;;2.40;;
31378;SDS011;61664;48.112;11.662;2023-08-17T08:04:32;2.90;;;2.58;;
31378;SDS011;61664;48.112;11.662;2023-08-17T08:06:59;3.60;;;3.30;;
31378;SDS011;61664;48.112;11.662;2023-08-17T08:09:25;3.38;;;3.17;;
31378;SDS011;61664;48.112;11.662;2023-08-17T08:11:52;3.10;;;2.90;;
31378;SDS011;61664;48.112;11.662;2023-08-17T08:14:19;4.32;;;3.47;;
31378;SDS011;61664;48.112;11.662;2023-08-17T08:16:46;3.13;;;2.92;;
31378;SDS011;61664;48.112;11.662;2023-08-17T08:19:13;2.53;;;2.42;;
31378;SDS011;61664;48.112;11.662;2023-08-17T08:21:40;3.00;;;2.90;;
31378;SDS011;61664;48.112;11.662;2023-08-17T08:24:07;2.85;;;2.75;;
31378;SDS011;61664;48.112;11.662;2023-08-17T08:26:47;3.05;;;2.95;;
31378;SDS011;61664;48.112;11.662;2023-08-17T08:29:14;2.75;;;2.65;;
31378;SDS011;61664;48.112;11.662;2023-08-17T08:31:41;2.45;;;2.35;;
31378;SDS011;61664;48.112;11.662;2023-08-17T08:34:08;3.05;;;2.85;;
31378;SDS011;61664;48.112;11.662;2023-08-17T08:36:35;3.00;;;2.90;;
31378;SDS011;61664;48.112;11.662;2023-08-17T08:39:02;2.90;;;2.67;;
31378;SDS011;61664;48.112;11.662;2023-08-17T08:41:29;3.40;;;3.10;;
31378;SDS011;61664;48.112;11.662;2023-08-17T08:43:58;2.67;;;2.58;;
31378;SDS011;61664;48.112;11.662;2023-08-17T08:46:25;2.65;;;2.13;;
31378;SDS011;61664;48.112;11.662;2023-08-17T08:48:56;2.58;;;2.47;;
31378;SDS011;61664;48.112;11.662;2023-08-17T08:51:25;2.05;;;1.95;;
31378;SDS011;61664;48.112;11.662;2023-08-17T08:54:00;2.25;;;2.15;;
31378;SDS011;61664;48.112;11.662;2023-08-17T08:56:32;2.42;;;2.30;;
31378;SDS011;61664;48.112;11.662;2023-08-17T08:59:03;2.25;;;2.15;;
31378;SDS011;61664;48.112;11.662;2023-08-17T09:01:31;2.50;;;2.40;;
31378;SDS011;61664;48.112;11.662;2023-08-17T09:03:59;1.80;;;1.70;;
31378;SDS011;61664;48.112;11.662;2023-08-17T09:06:27;1.42;;;1.33;;
31378;SDS011;61664;48.112;11.662;2023-08-17T09:08:57;2.20;;;2.10;;
31378;SDS011;61664;48.112;11.662;2023-08-17T09:11:25;1.92;;;1.83;;
31378;SDS011;61664;48.112;11.662;2023-08-17T09:13:52;2.70;;;1.77;;
31378;SDS011;61664;48.112;11.662;2023-08-17T09:16:20;1.77;;;1.67;;
31378;SDS011;61664;48.112;11.662;2023-08-17T09:18:52;1.90;;;1.80;;
31378;SDS011;61664;48.112;11.662;2023-08-17T09:21:23;1.70;;;1.60;;
31378;SDS011;61664;48.112;11.662;2023-08-17T09:23:51;1.70;;;1.60;;
31378;SDS011;61664;48.112;11.662;2023-08-17T09:26:29;2.00;;;1.90;;
31378;SDS011;61664;48.112;11.662;2023-08-17T09:29:03;1.70;;;1.60;;
31378;SDS011;61664;48.112;11.662;2023-08-17T09:31:47;1.30;;;1.30;;
31378;SDS011;61664;48.112;11.662;2023-08-17T09:34:14;1.70;;;1.60;;
31378;SDS011;61664;48.112;11.662;2023-08-17T09:36:47;1.65;;;1.55;;
31378;SDS011;61664;48.112;11.662;2023-08-17T09:39:17;1.63;;;1.52;;
31378;SDS011;61664;48.112;11.662;2023-08-17T09:41:44;1.63;;;1.52;;
31378;SDS011;61664;48.112;11.662;2023-08-17T09:44:11;1.42;;;1.42;;
31378;SDS011;61664;48.112;11.662;2023-08-17T09:46:39;1.83;;;1.73;;
31378;SDS011;61664;48.112;11.662;2023-08-17T09:49:09;1.35;;;1.35;;
31378;SDS011;61664;48.112;11.662;2023-08-17T09:51:36;1.70;;;1.60;;
31378;SDS011;61664;48.112;11.662;2023-08-17T09:54:08;2.10;;;1.70;;
31378;SDS011;61664;48.112;11.662;2023-08-17T09:56:46;1.45;;;1.45;;
31378;SDS011;61664;48.112;11.662;2023-08-17T09:59:14;1.83;;;1.73;;
31378;SDS011;61664;48.112;11.662;2023-08-17T10:01:41;1.67;;;1.45;;
31378;SDS011;61664;48.112;11.662;2023-08-17T10:04:09;1.80;;;1.70;;
31378;SDS011;61664;48.112;11.662;2023-08-17T10:06:40;2.85;;;1.83;;
31378;SDS011;61664;48.112;11.662;2023-08-17T10:09:09;1.33;;;1.33;;
31378;SDS011;61664;48.112;11.662;2023-08-17T10:11:42;1.33;;;1.30;;
31378;SDS011;61664;48.112;11.662;2023-08-17T10:16:53;1.33;;;1.33;;
31378;SDS011;61664;48.112;11.662;2023-08-17T10:19:33;1.70;;;1.60;;
31378;SDS011;61664;48.112;11.662;2023-08-17T10:25:09;1.20;;;1.20;;
31378;SDS011;61664;48.112;11.662;2023-08-17T10:27:38;1.50;;;1.45;;
31378;SDS011;61664;48.112;11.662;2023-08-17T10:30:09;1.42;;;1.42;;
31378;SDS011;61664;48.112;11.662;2023-08-17T10:32:38;1.55;;;1.55;;
31378;SDS011;61664;48.112;11.662;2023-08-17T10:35:12;1.38;;;1.33;;
31378;SDS011;61664;48.112;11.662;2023-08-17T10:37:42;1.80;;;1.70;;
31378;SDS011;61664;48.112;11.662;2023-08-17T10:40:11;1.45;;;1.35;;
31378;SDS011;61664;48.112;11.662;2023-08-17T10:42:41;2.65;;;1.80;;
31378;SDS011;61664;48.112;11.662;2023-08-17T10:50:34;1.45;;;1.35;;
31378;SDS011;61664;48.112;11.662;2023-08-17T10:53:12;1.52;;;1.52;;
31378;SDS011;61664;48.112;11.662;2023-08-17T10:55:44;1.50;;;1.50;;
31378;SDS011;61664;48.112;11.662;2023-08-17T10:58:18;1.58;;;1.58;;
31378;SDS011;61664;48.112;11.662;2023-08-17T11:00:45;2.00;;;1.90;;
31378;SDS011;61664;48.112;11.662;2023-08-17T11:03:19;2.22;;;1.88;;
31378;SDS011;61664;48.112;11.662;2023-08-17T11:05:55;1.95;;;1.85;;
31378;SDS011;61664;48.112;11.662;2023-08-17T11:08:38;3.40;;;1.90;;
31378;SDS011;61664;48.112;11.662;2023-08-17T11:11:17;1.90;;;1.80;;
31378;SDS011;61664;48.112;11.662;2023-08-17T11:13:47;1.90;;;1.88;;
31378;SDS011;61664;48.112;11.662;2023-08-17T11:16:21;2.10;;;1.58;;
31378;SDS011;61664;48.112;11.662;2023-08-17T11:18:49;2.13;;;2.03;;
31378;SDS011;61664;48.112;11.662;2023-08-17T11:21:17;4.70;;;2.20;;
31378;SDS011;61664;48.112;11.662;2023-08-17T11:23:45;2.00;;;1.90;;
31378;SDS011;61664;48.112;11.662;2023-08-17T11:26:15;2.15;;;1.98;;
31378;SDS011;61664;48.112;11.662;2023-08-17T11:28:44;1.85;;;1.75;;
31378;SDS011;61664;48.112;11.662;2023-08-17T11:31:12;1.98;;;1.88;;
31378;SDS011;61664;48.112;11.662;2023-08-17T11:33:42;2.15;;;2.05;;
31378;SDS011;61664;48.112;11.662;2023-08-17T11:36:30;1.85;;;1.75;;
31378;SDS011;61664;48.112;11.662;2023-08-17T11:38:57;1.98;;;1.88;;
31378;SDS011;61664;48.112;11.662;2023-08-17T11:41:24;2.00;;;1.90;;
31378;SDS011;61664;48.112;11.662;2023-08-17T11:43:51;2.20;;;2.10;;
31378;SDS011;61664;48.112;11.662;2023-08-17T11:46:19;2.88;;;2.67;;
31378;SDS011;61664;48.112;11.662;2023-08-17T11:48:53;2.08;;;1.98;;
31378;SDS011;61664;48.112;11.662;2023-08-17T11:51:29;2.80;;;2.60;;
31378;SDS011;61664;48.112;11.662;2023-08-17T11:54:00;2.28;;;2.17;;
31378;SDS011;61664;48.112;11.662;2023-08-17T11:56:30;2.90;;;2.42;;
31378;SDS011;61664;48.112;11.662;2023-08-17T11:58:56;2.67;;;2.47;;
31378;SDS011;61664;48.112;11.662;2023-08-17T12:01:23;2.72;;;2.53;;
31378;SDS011;61664;48.112;11.662;2023-08-17T12:03:50;2.53;;;2.42;;
31378;SDS011;61664;48.112;11.662;2023-08-17T12:06:17;2.42;;;2.33;;
31378;SDS011;61664;48.112;11.662;2023-08-17T12:08:45;2.75;;;2.63;;
31378;SDS011;61664;48.112;11.662;2023-08-17T12:11:17;3.17;;;2.97;;
31378;SDS011;61664;48.112;11.662;2023-08-17T12:13:52;2.63;;;2.53;;
31378;SDS011;61664;48.112;11.662;2023-08-17T12:16:20;2.70;;;2.60;;
31378;SDS011;61664;48.112;11.662;2023-08-17T12:18:52;3.13;;;3.03;;
31378;SDS011;61664;48.112;11.662;2023-08-17T12:21:20;2.53;;;2.42;;
31378;SDS011;61664;48.112;11.662;2023-08-17T12:23:49;2.80;;;2.70;;
31378;SDS011;61664;48.112;11.662;2023-08-17T12:26:19;2.92;;;2.83;;
31378;SDS011;61664;48.112;11.662;2023-08-17T12:28:48;3.10;;;2.90;;
31378;SDS011;61664;48.112;11.662;2023-08-17T12:31:20;3.05;;;2.88;;
31378;SDS011;61664;48.112;11.662;2023-08-17T12:33:50;3.38;;;3.03;;
31378;SDS011;61664;48.112;11.662;2023-08-17T12:36:17;2.40;;;2.30;;
31378;SDS011;61664;48.112;11.662;2023-08-17T12:38:46;2.95;;;2.85;;
31378;SDS011;61664;48.112;11.662;2023-08-17T12:41:14;2.75;;;2.65;;
31378;SDS011;61664;48.112;11.662;2023-08-17T12:43:41;2.67;;;2.58;;
31378;SDS011;61664;48.112;11.662;2023-08-17T12:46:08;2.22;;;2.13;;
31378;SDS011;61664;48.112;11.662;2023-08-17T12:48:37;2.80;;;2.67;;
31378;SDS011;61664;48.112;11.662;2023-08-17T12:51:05;2.55;;;2.45;;
31378;SDS011;61664;48.112;11.662;2023-08-17T12:53:32;2.53;;;2.33;;
31378;SDS011;61664;48.112;11.662;2023-08-17T12:55:59;3.05;;;2.50;;
31378;SDS011;61664;48.112;11.662;2023-08-17T12:58:26;2.60;;;2.50;;
31378;SDS011;61664;48.112;11.662;2023-08-17T13:00:52;2.58;;;2.38;;
31378;SDS011;61664;48.112;11.662;2023-08-17T13:03:21;2.42;;;2.33;;
31378;SDS011;61664;48.112;11.662;2023-08-17T13:05:48;2.70;;;2.50;;
31378;SDS011;61664;48.112;11.662;2023-08-17T13:08:15;2.60;;;2.50;;
31378;SDS011;61664;48.112;11.662;2023-08-17T13:10:42;2.30;;;2.20;;
31378;SDS011;61664;48.112;11.662;2023-08-17T13:13:09;2.53;;;2.42;;
31378;SDS011;61664;48.112;11.662;2023-08-17T13:15:36;2.65;;;2.55;;
31378;SDS011;61664;48.112;11.662;2023-08-17T13:18:03;2.47;;;2.38;;
31378;SDS011;61664;48.112;11.662;2023-08-17T13:20:30;3.05;;;2.85;;
31378;SDS011;61664;48.112;11.662;2023-08-17T13:22:57;2.53;;;2.42;;
31378;SDS011;61664;48.112;11.662;2023-08-17T13:25:24;2.38;;;2.17;;
31378;SDS011;61664;48.112;11.662;2023-08-17T13:27:51;2.17;;;2.08;;
31378;SDS011;61664;48.112;11.662;2023-08-17T13:30:18;2.47;;;2.28;;
31378;SDS011;61664;48.112;11.662;2023-08-17T13:32:45;2.45;;;2.35;;
31378;SDS011;61664;48.112;11.662;2023-08-17T13:35:13;1.90;;;1.80;;
31378;SDS011;61664;48.112;11.662;2023-08-17T13:37:41;2.22;;;2.13;;
31378;SDS011;61664;48.112;11.662;2023-08-17T13:40:08;2.00;;;1.90;;
31378;SDS011;61664;48.112;11.662;2023-08-17T13:42:36;2.00;;;1.90;;
31378;SDS011;61664;48.112;11.662;2023-08-17T13:45:03;2.17;;;2.08;;
31378;SDS011;61664;48.112;11.662;2023-08-17T13:47:30;1.92;;;1.83;;
31378;SDS011;61664;48.112;11.662;2023-08-17T13:49:57;2.50;;;2.38;;
31378;SDS011;61664;48.112;11.662;2023-08-17T13:52:25;2.15;;;2.05;;
31378;SDS011;61664;48.112;11.662;2023-08-17T13:54:52;2.30;;;2.20;;
31378;SDS011;61664;48.112;11.662;2023-08-17T13:57:19;2.50;;;2.40;;
31378;SDS011;61664;48.112;11.662;2023-08-17T13:59:46;2.35;;;2.25;;
31378;SDS011;61664;48.112;11.662;2023-08-17T14:02:13;2.13;;;1.98;;
31378;SDS011;61664;48.112;11.662;2023-08-17T14:04:40;2.80;;;2.60;;
31378;SDS011;61664;48.112;11.662;2023-08-17T14:07:07;2.28;;;2.17;;
31378;SDS011;61664;48.112;11.662;2023-08-17T14:09:34;2.38;;;2.28;;
31378;SDS011;61664;48.112;11.662;2023-08-17T14:12:01;2.15;;;2.05;;
31378;SDS011;61664;48.112;11.662;2023-08-17T14:14:28;2.65;;;2.05;;
31378;SDS011;61664;48.112;11.662;2023-08-17T14:16:55;1.90;;;1.80;;
31378;SDS011;61664;48.112;11.662;2023-08-17T14:19:23;2.60;;;2.33;;
31378;SDS011;61664;48.112;11.662;2023-08-17T14:21:50;2.03;;;1.92;;
31378;SDS011;61664;48.112;11.662;2023-08-17T14:24:17;2.58;;;2.15;;
31378;SDS011;61664;48.112;11.662;2023-08-17T14:26:44;2.33;;;2.22;;
31378;SDS011;61664;48.112;11.662;2023-08-17T14:29:11;2.05;;;1.95;;
31378;SDS011;61664;48.112;11.662;2023-08-17T14:31:38;2.72;;;2.53;;
31378;SDS011;61664;48.112;11.662;2023-08-17T14:34:05;2.35;;;2.25;;
31378;SDS011;61664;48.112;11.662;2023-08-17T14:36:32;2.42;;;2.33;;
31378;SDS011;61664;48.112;11.662;2023-08-17T14:38:59;2.33;;;2.22;;
31378;SDS011;61664;48.112;11.662;2023-08-17T14:41:26;2.83;;;2.63;;
31378;SDS011;61664;48.112;11.662;2023-08-17T14:43:58;2.22;;;2.10;;
31378;SDS011;61664;48.112;11.662;2023-08-17T14:46:28;2.53;;;2.42;;
31378;SDS011;61664;48.112;11.662;2023-08-17T14:48:56;2.30;;;2.20;;
31378;SDS011;61664;48.112;11.662;2023-08-17T14:51:24;2.13;;;2.03;;
31378;SDS011;61664;48.112;11.662;2023-08-17T14:53:56;2.28;;;2.10;;
31378;SDS011;61664;48.112;11.662;2023-08-17T14:56:23;2.85;;;2.70;;